createdAt,value
2023-05-15T00:00:33.362Z,21.98
2023-05-15T00:03:03.269Z,22.15
2023-05-15T00:05:31.813Z,23.20
2023-05-15T00:08:00.350Z,22.35
2023-05-15T00:10:28.813Z,23.77
2023-05-15T00:12:57.286Z,22.80
2023-05-15T00:15:26.011Z,23.33
2023-05-15T00:17:54.877Z,23.67
2023-05-15T00:20:24.805Z,23.02
2023-05-15T00:22:53.359Z,23.55
2023-05-15T00:25:21.858Z,23.05
2023-05-15T00:27:50.348Z,23.35
2023-05-15T00:30:18.822Z,22.58
2023-05-15T00:32:47.277Z,22.63
2023-05-15T00:35:15.784Z,22.27
2023-05-15T00:37:45.603Z,24.30
2023-05-15T00:40:16.791Z,21.60
2023-05-15T00:42:45.558Z,23.23
2023-05-15T00:45:14.858Z,23.58
2023-05-15T00:47:44.291Z,23.35
2023-05-15T00:50:15.004Z,21.95
2023-05-15T00:52:45.124Z,20.95
2023-05-15T00:55:13.576Z,22.25
2023-05-15T00:57:43.639Z,22.33
2023-05-15T01:00:12.630Z,20.60
2023-05-15T01:02:41.165Z,20.75
2023-05-15T01:05:10.013Z,21.70
2023-05-15T01:07:42.495Z,20.58
2023-05-15T01:10:12.850Z,19.80
2023-05-15T01:12:42.205Z,20.52
2023-05-15T01:15:10.981Z,20.60
2023-05-15T01:17:39.624Z,22.50
2023-05-15T01:20:10.676Z,19.85
2023-05-15T01:22:48.862Z,21.33
2023-05-15T01:25:32.209Z,21.10
2023-05-15T01:28:05.753Z,20.52
2023-05-15T01:30:36.417Z,21.25
2023-05-15T01:33:07.407Z,21.20
2023-05-15T01:35:37.763Z,20.63
2023-05-15T01:38:21.126Z,20.88
2023-05-15T01:40:50.174Z,21.38
2023-05-15T01:43:23.851Z,20.40
2023-05-15T01:45:52.478Z,20.98
2023-05-15T01:48:21.631Z,21.58
2023-05-15T01:50:51.467Z,20.92
2023-05-15T01:53:20.770Z,22.00
2023-05-15T01:55:49.627Z,22.02
2023-05-15T01:58:18.114Z,24.92
2023-05-15T02:00:48.801Z,22.17
2023-05-15T02:03:17.812Z,24.48
2023-05-15T02:05:46.700Z,25.08
2023-05-15T02:08:15.489Z,24.33
2023-05-15T02:10:44.898Z,24.77
2023-05-15T02:13:14.593Z,25.13
2023-05-15T02:15:43.560Z,24.40
2023-05-15T02:18:13.400Z,24.70
2023-05-15T02:20:41.951Z,24.83
2023-05-15T02:23:10.454Z,25.25
2023-05-15T02:25:44.444Z,24.02
2023-05-15T02:28:17.826Z,25.10
2023-05-15T02:30:51.532Z,24.33
2023-05-15T02:33:26.059Z,23.40
2023-05-15T02:35:56.402Z,23.55
2023-05-15T02:38:26.774Z,23.77
2023-05-15T02:40:56.507Z,22.52
2023-05-15T02:43:25.138Z,21.95
2023-05-15T02:45:54.591Z,22.50
2023-05-15T02:48:24.725Z,21.98
2023-05-15T02:50:53.673Z,23.13
2023-05-15T02:53:22.193Z,21.83
2023-05-15T02:55:50.687Z,22.27
2023-05-15T02:58:19.220Z,22.55
2023-05-15T03:00:47.680Z,23.30
2023-05-15T03:03:16.549Z,21.70
2023-05-15T03:05:46.421Z,22.85
2023-05-15T03:08:14.858Z,22.15
2023-05-15T03:10:43.340Z,23.13
2023-05-15T03:13:11.982Z,22.10
2023-05-15T03:15:40.502Z,24.40
2023-05-15T03:18:08.974Z,24.13
2023-05-15T03:20:37.628Z,22.70
2023-05-15T03:23:07.485Z,21.67
2023-05-15T03:25:35.980Z,21.50
2023-05-15T03:28:04.416Z,22.55
2023-05-15T03:30:32.895Z,21.15
2023-05-15T03:33:03.960Z,22.13
2023-05-15T03:35:33.344Z,23.92
2023-05-15T03:38:01.782Z,26.77
2023-05-15T03:40:31.592Z,26.95
2023-05-15T03:43:00.018Z,26.27
2023-05-15T03:45:28.780Z,27.92
2023-05-15T03:47:57.486Z,28.30
2023-05-15T03:50:25.956Z,26.70
2023-05-15T03:52:54.757Z,27.55
2023-05-15T03:55:23.443Z,28.42
2023-05-15T03:57:53.460Z,28.45
2023-05-15T04:00:22.165Z,30.55
2023-05-15T04:02:51.023Z,28.55
2023-05-15T04:05:21.791Z,29.70
2023-05-15T04:07:50.459Z,31.98
2023-05-15T04:10:19.008Z,31.73
2023-05-15T04:12:47.928Z,33.60
2023-05-15T04:15:18.548Z,36.15
2023-05-15T04:17:47.793Z,36.92
2023-05-15T04:20:17.071Z,39.08
2023-05-15T04:22:45.951Z,36.78
2023-05-15T04:25:14.831Z,42.00
2023-05-15T04:27:44.405Z,41.22
2023-05-15T04:30:13.334Z,42.30
2023-05-15T04:32:43.474Z,42.05
2023-05-15T04:35:13.715Z,41.67
2023-05-15T04:37:42.530Z,41.28
2023-05-15T04:40:11.260Z,44.92
2023-05-15T04:42:39.891Z,44.20
2023-05-15T04:45:09.345Z,48.13
2023-05-15T04:47:37.947Z,44.45
2023-05-15T04:50:09.243Z,48.88
2023-05-15T04:52:37.850Z,49.72
2023-05-15T04:55:06.816Z,52.03
2023-05-15T04:57:35.729Z,50.10
2023-05-15T05:00:05.835Z,48.35
2023-05-15T05:02:34.497Z,50.78
2023-05-15T05:05:03.069Z,49.35
2023-05-15T05:07:32.905Z,49.45
2023-05-15T05:10:01.394Z,42.72
2023-05-15T05:12:29.880Z,38.25
2023-05-15T05:14:58.378Z,33.20
2023-05-15T05:17:26.881Z,33.47
2023-05-15T05:19:55.372Z,30.10
2023-05-15T05:22:23.976Z,29.10
2023-05-15T05:24:53.784Z,25.70
2023-05-15T05:27:22.295Z,28.27
2023-05-15T05:29:50.736Z,29.27
2023-05-15T05:32:19.432Z,30.27
2023-05-15T05:34:47.957Z,25.75
2023-05-15T05:37:16.413Z,26.73
2023-05-15T05:39:44.909Z,24.88
2023-05-15T05:42:14.790Z,27.90
2023-05-15T05:44:43.332Z,29.63
2023-05-15T05:47:11.965Z,30.17
2023-05-15T05:49:40.804Z,26.67
2023-05-15T05:52:09.682Z,26.88
2023-05-15T05:54:38.132Z,26.00
2023-05-15T05:57:07.722Z,29.48
2023-05-15T05:59:37.623Z,27.10
2023-05-15T06:02:06.402Z,25.80
2023-05-15T06:04:34.970Z,26.90
2023-05-15T06:07:03.538Z,24.58
2023-05-15T06:09:32.091Z,26.83
2023-05-15T06:12:04.488Z,26.15
2023-05-15T06:14:32.970Z,25.58
2023-05-15T06:17:03.419Z,27.63
2023-05-15T06:19:31.984Z,27.17
2023-05-15T06:22:00.455Z,25.35
2023-05-15T06:24:28.952Z,24.35
2023-05-15T06:26:57.475Z,23.95
2023-05-15T06:29:26.018Z,26.23
2023-05-15T06:31:54.629Z,31.60
2023-05-15T06:34:33.075Z,31.52
2023-05-15T06:37:02.020Z,24.85
2023-05-15T06:39:30.464Z,24.75
2023-05-15T06:42:01.675Z,22.00
2023-05-15T06:44:30.759Z,22.60
2023-05-15T06:46:59.298Z,23.25
2023-05-15T06:49:29.544Z,20.77
2023-05-15T06:51:58.042Z,22.50
2023-05-15T06:54:26.609Z,20.55
2023-05-15T06:56:55.139Z,18.88
2023-05-15T06:59:23.870Z,19.58
2023-05-15T07:01:52.547Z,18.05
2023-05-15T07:04:21.143Z,17.95
2023-05-15T07:06:52.195Z,18.83
2023-05-15T07:09:20.724Z,19.13
2023-05-15T07:11:49.262Z,18.58
2023-05-15T07:14:17.759Z,18.33
2023-05-15T07:19:06.186Z,16.77
2023-05-15T07:21:34.641Z,18.20
2023-05-15T07:24:03.249Z,18.80
2023-05-15T07:26:38.412Z,19.38
2023-05-15T07:29:12.861Z,18.35
2023-05-15T07:31:44.664Z,19.55
2023-05-15T07:34:15.061Z,19.98
2023-05-15T07:36:43.600Z,17.23
2023-05-15T07:39:12.349Z,18.02
2023-05-15T07:41:40.984Z,17.05
2023-05-15T07:44:09.531Z,17.88
2023-05-15T07:46:39.162Z,17.45
2023-05-15T07:49:07.760Z,17.23
2023-05-15T07:51:37.693Z,17.15
2023-05-15T07:54:06.541Z,18.27
2023-05-15T07:56:35.090Z,17.48
2023-05-15T07:59:03.859Z,18.00
2023-05-15T08:01:32.855Z,17.20
2023-05-15T08:04:01.623Z,16.52
2023-05-15T08:06:30.187Z,15.85
2023-05-15T08:08:59.993Z,15.57
2023-05-15T08:11:28.433Z,15.75
2023-05-15T08:13:56.978Z,15.32
2023-05-15T08:16:25.711Z,15.75
2023-05-15T08:18:58.466Z,17.00
2023-05-15T08:21:27.959Z,16.27
2023-05-15T08:23:56.834Z,15.77
2023-05-15T08:26:26.782Z,16.08
2023-05-15T08:28:55.232Z,15.07
2023-05-15T08:31:23.785Z,16.52
2023-05-15T08:33:52.278Z,15.48
2023-05-15T08:36:24.028Z,14.68
2023-05-15T08:38:52.951Z,13.90
2023-05-15T08:41:39.332Z,14.07
2023-05-15T08:44:11.731Z,16.00
2023-05-15T08:46:40.570Z,15.60
2023-05-15T08:49:12.671Z,16.45
2023-05-15T08:51:41.405Z,14.50
2023-05-15T08:54:10.224Z,15.05
2023-05-15T08:56:38.697Z,13.25
2023-05-15T08:59:07.648Z,14.13
2023-05-15T09:01:38.060Z,13.82
2023-05-15T09:04:07.231Z,13.60
2023-05-15T09:06:36.263Z,15.63
2023-05-15T09:09:05.930Z,13.98
2023-05-15T09:11:35.132Z,15.88
2023-05-15T09:14:04.778Z,15.75
2023-05-15T09:16:33.456Z,15.60
2023-05-15T09:19:03.873Z,14.85
2023-05-15T09:21:33.160Z,15.27
2023-05-15T09:24:16.642Z,14.65
2023-05-15T09:26:45.986Z,14.95
2023-05-15T09:29:18.718Z,14.57
2023-05-15T09:31:48.533Z,13.15
2023-05-15T09:34:18.595Z,13.18
2023-05-15T09:36:47.109Z,12.93
2023-05-15T09:39:15.949Z,13.60
2023-05-15T09:42:38.909Z,13.82
2023-05-15T09:45:07.938Z,12.93
2023-05-15T09:47:36.620Z,12.82
2023-05-15T09:50:05.232Z,13.27
2023-05-15T09:52:33.802Z,12.70
2023-05-15T09:55:02.298Z,13.18
2023-05-15T09:57:31.263Z,13.82
2023-05-15T10:00:10.280Z,12.43
2023-05-15T10:02:41.702Z,12.23
2023-05-15T10:05:10.388Z,12.45
2023-05-15T10:07:38.949Z,12.68
2023-05-15T10:10:08.054Z,12.18
2023-05-15T10:12:36.757Z,11.60
2023-05-15T10:15:07.325Z,11.25
2023-05-15T10:17:36.983Z,11.95
2023-05-15T10:20:07.175Z,12.40
2023-05-15T10:22:39.615Z,9.95
2023-05-15T10:25:11.362Z,12.07
2023-05-15T10:27:40.736Z,11.15
2023-05-15T10:30:12.198Z,11.90
2023-05-15T10:32:42.258Z,10.85
2023-05-15T10:35:11.864Z,10.75
2023-05-15T10:37:41.346Z,11.50
2023-05-15T10:40:11.577Z,11.02
2023-05-15T10:42:40.221Z,11.57
2023-05-15T10:45:10.027Z,11.27
2023-05-15T10:47:40.466Z,10.30
2023-05-15T10:50:09.884Z,10.52
2023-05-15T10:52:38.935Z,9.77
2023-05-15T10:55:11.250Z,10.15
2023-05-15T10:57:39.786Z,9.98
2023-05-15T11:00:26.343Z,9.50
2023-05-15T11:02:58.867Z,10.93
2023-05-15T11:05:27.940Z,10.77
2023-05-15T11:08:15.110Z,11.35
2023-05-15T11:10:43.806Z,9.48
2023-05-15T11:13:12.896Z,9.90
2023-05-15T11:15:45.094Z,10.82
2023-05-15T11:18:15.578Z,11.15
2023-05-15T11:20:45.772Z,10.80
2023-05-15T11:23:14.373Z,10.70
2023-05-15T11:25:43.163Z,10.77
2023-05-15T11:28:22.774Z,10.50
2023-05-15T11:31:02.723Z,10.00
2023-05-15T11:33:32.805Z,11.07
2023-05-15T11:36:01.912Z,9.60
2023-05-15T11:38:30.637Z,9.48
2023-05-15T11:41:02.822Z,9.38
2023-05-15T11:43:32.358Z,9.60
2023-05-15T11:46:01.526Z,9.18
2023-05-15T11:48:33.296Z,11.73
2023-05-15T11:51:04.615Z,12.20
2023-05-15T11:53:33.570Z,12.50
2023-05-15T11:56:02.251Z,12.98
2023-05-15T11:58:31.334Z,12.27
2023-05-15T12:01:00.132Z,11.50
2023-05-15T12:03:29.282Z,10.40
2023-05-15T12:06:00.334Z,9.55
2023-05-15T12:08:33.433Z,9.38
2023-05-15T12:11:02.490Z,9.10
2023-05-15T12:13:31.858Z,9.73
2023-05-15T12:16:00.520Z,9.30
2023-05-15T12:18:29.208Z,8.80
2023-05-15T12:20:57.783Z,8.23
2023-05-15T12:23:26.874Z,8.98
2023-05-15T12:26:04.547Z,8.43
2023-05-15T12:28:37.499Z,7.82
2023-05-15T12:31:06.360Z,8.38
2023-05-15T12:33:34.958Z,9.40
2023-05-15T12:36:03.541Z,8.80
2023-05-15T12:38:34.362Z,8.57
2023-05-15T12:41:04.229Z,10.48
2023-05-15T12:43:33.332Z,11.75
2023-05-15T12:46:01.840Z,11.13
2023-05-15T12:48:33.918Z,10.98
2023-05-15T12:51:09.252Z,11.30
2023-05-15T12:53:39.709Z,12.95
2023-05-15T12:56:10.494Z,14.35
2023-05-15T12:58:38.996Z,12.60
2023-05-15T13:01:07.574Z,12.20
2023-05-15T13:03:36.738Z,11.70
2023-05-15T13:06:07.023Z,11.40
2023-05-15T13:08:41.751Z,9.70
2023-05-15T13:11:14.837Z,9.43
2023-05-15T13:13:44.324Z,10.32
2023-05-15T13:16:26.727Z,10.60
2023-05-15T13:18:55.520Z,12.45
2023-05-15T13:21:23.990Z,12.52
2023-05-15T13:23:52.921Z,11.15
2023-05-15T13:26:23.211Z,10.55
2023-05-15T13:28:51.682Z,12.02
2023-05-15T13:31:20.210Z,11.82
2023-05-15T13:33:48.748Z,13.48
2023-05-15T13:36:17.706Z,14.43
2023-05-15T13:38:46.742Z,14.10
2023-05-15T13:41:15.684Z,12.70
2023-05-15T13:43:47.951Z,12.40
2023-05-15T13:46:17.079Z,11.50
2023-05-15T13:48:45.858Z,10.88
2023-05-15T13:51:14.859Z,10.65
2023-05-15T13:53:43.768Z,10.23
2023-05-15T13:56:12.798Z,9.40
2023-05-15T13:58:42.595Z,10.85
2023-05-15T14:01:12.837Z,9.95
2023-05-15T14:03:41.679Z,12.45
2023-05-15T14:06:10.782Z,14.02
2023-05-15T14:08:39.446Z,14.43
2023-05-15T14:11:08.233Z,13.93
2023-05-15T14:13:36.794Z,14.18
2023-05-15T14:16:05.363Z,14.77
2023-05-15T14:18:35.398Z,14.05
2023-05-15T14:21:04.089Z,14.38
2023-05-15T14:23:32.689Z,14.23
2023-05-15T14:26:01.374Z,15.10
2023-05-15T14:28:29.976Z,15.05
2023-05-15T14:30:58.612Z,16.35
2023-05-15T14:33:27.806Z,15.77
2023-05-15T14:35:57.854Z,17.48
2023-05-15T14:38:26.483Z,18.73
2023-05-15T14:40:55.330Z,16.35
2023-05-15T14:43:24.963Z,19.10
2023-05-15T14:45:53.684Z,17.52
2023-05-15T14:48:22.261Z,19.60
2023-05-15T14:50:51.227Z,18.98
2023-05-15T14:53:21.215Z,17.63
2023-05-15T14:55:49.818Z,17.38
2023-05-15T14:58:18.327Z,17.67
2023-05-15T15:00:48.231Z,15.00
2023-05-15T15:03:17.072Z,13.88
2023-05-15T15:05:45.739Z,14.30
2023-05-15T15:08:14.274Z,14.10
2023-05-15T15:10:44.531Z,13.77
2023-05-15T15:13:14.040Z,14.15
2023-05-15T15:15:42.768Z,14.70
2023-05-15T15:18:11.301Z,15.60
2023-05-15T15:20:39.874Z,20.02
2023-05-15T15:23:08.846Z,18.25
2023-05-15T15:25:37.517Z,22.27
2023-05-15T15:28:07.400Z,21.25
2023-05-15T15:30:35.898Z,21.42
2023-05-15T15:33:04.473Z,22.13
2023-05-15T15:35:33.392Z,23.17
2023-05-15T15:38:01.906Z,23.10
2023-05-15T15:40:30.611Z,23.63
2023-05-15T15:42:59.075Z,21.98
2023-05-15T15:45:29.253Z,23.48
2023-05-15T15:47:58.431Z,21.63
2023-05-15T15:50:29.072Z,21.60
2023-05-15T15:52:57.505Z,20.73
2023-05-15T15:55:26.251Z,20.05
2023-05-15T15:57:54.766Z,20.92
2023-05-15T16:00:23.727Z,20.85
2023-05-15T16:02:56.984Z,19.77
2023-05-15T16:05:25.612Z,18.33
2023-05-15T16:07:54.209Z,18.42
2023-05-15T16:10:22.776Z,17.45
2023-05-15T16:12:51.325Z,18.15
2023-05-15T16:15:23.669Z,18.55
2023-05-15T16:17:54.984Z,19.15
2023-05-15T16:20:24.553Z,18.20
2023-05-15T16:22:53.436Z,18.80
2023-05-15T16:25:22.057Z,18.52
2023-05-15T16:27:50.644Z,17.13
2023-05-15T16:30:19.265Z,14.68
2023-05-15T16:32:49.724Z,12.93
2023-05-15T16:35:20.653Z,10.93
2023-05-15T16:37:49.992Z,12.02
2023-05-15T16:40:19.203Z,12.52
2023-05-15T16:42:48.137Z,13.02
2023-05-15T16:45:16.883Z,13.07
2023-05-15T16:47:45.396Z,12.40
2023-05-15T16:50:15.653Z,12.98
2023-05-15T16:52:47.830Z,13.43
2023-05-15T16:55:16.879Z,13.02
2023-05-15T16:57:45.691Z,13.27
2023-05-15T17:00:15.084Z,13.63
2023-05-15T17:02:44.100Z,15.88
2023-05-15T17:05:14.584Z,19.02
2023-05-15T17:07:43.514Z,19.17
2023-05-15T17:10:13.972Z,18.85
2023-05-15T17:12:42.604Z,18.25
2023-05-15T17:15:11.413Z,18.65
2023-05-15T17:17:39.904Z,13.45
2023-05-15T17:20:08.921Z,10.55
2023-05-15T17:22:37.434Z,10.70
2023-05-15T17:25:07.192Z,10.13
2023-05-15T17:27:39.840Z,10.15
2023-05-15T17:30:09.410Z,9.80
2023-05-15T17:32:37.947Z,11.25
2023-05-15T17:35:06.729Z,13.10
2023-05-15T17:37:37.909Z,13.27
2023-05-15T17:40:07.015Z,12.68
2023-05-15T17:42:37.280Z,13.52
2023-05-15T17:45:06.024Z,14.43
2023-05-15T17:47:34.691Z,15.18
2023-05-15T17:50:03.529Z,15.10
2023-05-15T17:52:31.978Z,16.17
2023-05-15T17:55:00.432Z,16.02
2023-05-15T17:57:28.923Z,17.70
2023-05-15T17:59:58.758Z,18.08
2023-05-15T18:02:27.320Z,16.65
2023-05-15T18:04:56.201Z,18.08
2023-05-15T18:07:24.686Z,18.35
2023-05-15T18:09:53.187Z,17.80
2023-05-15T18:12:21.872Z,18.48
2023-05-15T18:14:50.419Z,17.75
2023-05-15T18:17:21.250Z,18.73
2023-05-15T18:19:49.825Z,16.90
2023-05-15T18:22:18.320Z,18.73
2023-05-15T18:24:46.941Z,17.60
2023-05-15T18:27:15.529Z,17.13
2023-05-15T18:29:45.602Z,16.48
2023-05-15T18:34:03.814Z,14.30
2023-05-15T18:36:32.244Z,13.18
2023-05-15T18:39:01.264Z,13.07
2023-05-15T18:41:29.702Z,12.43
2023-05-15T18:43:58.311Z,13.05
2023-05-15T18:46:28.230Z,12.10
2023-05-15T18:48:56.985Z,12.27
2023-05-15T18:51:26.893Z,11.23
2023-05-15T18:53:55.486Z,11.77
2023-05-15T18:56:25.213Z,12.13
2023-05-15T18:58:53.768Z,11.68
2023-05-15T19:01:22.330Z,13.02
2023-05-15T19:03:51.031Z,11.32
2023-05-15T19:06:20.405Z,12.00
2023-05-15T19:08:50.569Z,11.38
2023-05-15T19:11:21.664Z,11.98
2023-05-15T19:13:53.188Z,11.02
2023-05-15T19:16:21.830Z,11.35
2023-05-15T19:18:50.484Z,10.73
2023-05-15T19:21:21.042Z,10.80
2023-05-15T19:23:51.125Z,11.68
2023-05-15T19:26:21.654Z,10.50
2023-05-15T19:28:50.169Z,10.35
2023-05-15T19:31:30.639Z,10.70
2023-05-15T19:34:00.003Z,10.10
2023-05-15T19:36:28.809Z,9.88
2023-05-15T19:38:58.879Z,9.50
2023-05-15T19:41:27.453Z,9.43
2023-05-15T19:43:56.085Z,9.88
2023-05-15T19:46:24.716Z,9.75
2023-05-15T19:48:53.469Z,9.02
2023-05-15T19:51:22.128Z,8.68
2023-05-15T19:53:51.108Z,8.68
2023-05-15T19:56:22.043Z,8.48
2023-05-15T19:58:50.903Z,8.63
2023-05-15T20:01:19.536Z,8.50
2023-05-15T20:03:48.317Z,8.52
2023-05-15T20:06:17.358Z,8.27
2023-05-15T20:08:45.945Z,8.15
2023-05-15T20:11:14.496Z,8.02
2023-05-15T20:13:45.562Z,7.68
2023-05-15T20:16:16.643Z,8.00
2023-05-15T20:18:48.025Z,8.43
2023-05-15T20:21:17.045Z,7.60
2023-05-15T20:23:45.722Z,8.13
2023-05-15T20:26:14.604Z,7.90
2023-05-15T20:28:45.422Z,7.75
2023-05-15T20:31:14.145Z,7.43
2023-05-15T20:33:43.360Z,7.20
2023-05-15T20:36:12.568Z,7.45
2023-05-15T20:38:44.211Z,7.28
2023-05-15T20:41:12.957Z,7.63
2023-05-15T20:43:41.497Z,7.60
2023-05-15T20:46:11.533Z,7.53
2023-05-15T20:48:40.170Z,8.05
2023-05-15T20:51:08.995Z,8.10
2023-05-15T20:53:37.721Z,8.43
2023-05-15T20:56:06.475Z,7.57
2023-05-15T20:58:35.110Z,7.50
2023-05-15T21:01:04.038Z,7.75
2023-05-15T21:03:34.032Z,8.15
2023-05-15T21:06:03.922Z,7.80
2023-05-15T21:08:32.464Z,7.70
2023-05-15T21:11:01.233Z,7.10
2023-05-15T21:13:29.963Z,7.68
2023-05-15T21:15:58.469Z,7.43
2023-05-15T21:18:26.974Z,7.63
2023-05-15T21:20:56.926Z,7.28
2023-05-15T21:23:25.382Z,7.15
2023-05-15T21:25:53.863Z,6.90
2023-05-15T21:28:22.396Z,6.75
2023-05-15T21:30:51.103Z,7.60
2023-05-15T21:33:20.619Z,7.35
2023-05-15T21:35:49.142Z,7.40
2023-05-15T21:38:19.056Z,8.52
2023-05-15T21:40:47.666Z,7.95
2023-05-15T21:43:16.159Z,8.15
2023-05-15T21:45:44.626Z,7.32
2023-05-15T21:48:13.203Z,7.32
2023-05-15T21:50:41.894Z,7.68
2023-05-15T21:53:10.420Z,6.60
2023-05-15T21:55:40.648Z,6.22
2023-05-15T21:58:10.334Z,6.45
2023-05-15T22:00:40.374Z,6.20
2023-05-15T22:03:09.009Z,6.00
2023-05-15T22:05:37.637Z,6.47
2023-05-15T22:08:08.251Z,5.07
2023-05-15T22:10:36.810Z,5.43
2023-05-15T22:13:07.031Z,5.88
2023-05-15T22:15:35.492Z,5.43
2023-05-15T22:18:05.667Z,5.13
2023-05-15T22:20:34.483Z,5.65
2023-05-15T22:23:02.999Z,4.75
2023-05-15T22:25:31.483Z,5.50
2023-05-15T22:28:00.049Z,4.93
2023-05-15T22:30:30.315Z,4.80
2023-05-15T22:32:58.955Z,4.93
2023-05-15T22:35:28.182Z,5.00
2023-05-15T22:37:57.121Z,5.65
2023-05-15T22:40:26.279Z,5.35
2023-05-15T22:42:54.981Z,5.63
2023-05-15T22:45:23.778Z,6.47
2023-05-15T22:47:54.027Z,5.50
2023-05-15T22:50:22.535Z,6.15
2023-05-15T22:52:51.194Z,6.55
2023-05-15T22:55:20.110Z,7.30
2023-05-15T22:57:49.020Z,7.47
2023-05-15T23:00:18.295Z,7.25
2023-05-15T23:02:47.162Z,7.20
2023-05-15T23:05:17.017Z,8.32
2023-05-15T23:07:45.617Z,8.75
2023-05-15T23:10:14.275Z,8.23
2023-05-15T23:12:42.827Z,9.60
2023-05-15T23:15:11.779Z,11.38
2023-05-15T23:17:41.127Z,10.52
2023-05-15T23:20:11.222Z,9.00
2023-05-15T23:22:41.241Z,8.98
2023-05-15T23:25:10.087Z,8.73
2023-05-15T23:27:38.734Z,7.82
2023-05-15T23:30:07.880Z,8.13
2023-05-15T23:32:36.409Z,8.13
2023-05-15T23:35:05.115Z,7.43
2023-05-15T23:37:33.667Z,7.22
2023-05-15T23:40:05.269Z,6.68
2023-05-15T23:42:33.959Z,6.60
2023-05-15T23:45:02.477Z,5.78
2023-05-15T23:47:31.028Z,5.25
2023-05-15T23:49:59.691Z,5.00
2023-05-15T23:52:28.154Z,4.72
2023-05-15T23:54:56.636Z,5.18
2023-05-15T23:57:26.458Z,5.85
2023-05-15T23:59:54.909Z,6.95
